Time;durP1;ratioP1;P1;durP2;ratioP2;P2;SDS_P1;SDS_P2;PMS_P1;PMS_P2;Temp;Humidity;BMP_temperature;BMP_pressure;BME280_temperature;BME280_humidity;BME280_pressure;Samples;Min_cycle;Max_cycle;Signal;HPM_P1;HPM_P2
2022/10/27 00:00:38;;;;;;;;;5.50;2.00;;;;;18.81;58.98;101301.72;5073614;27;46032;-48
2022/10/27 00:03:04;;;;;;;;;3.25;1.50;;;;;18.78;58.68;101300.06;5071018;27;45344;-45
2022/10/27 00:05:29;;;;;;;;;5.00;3.00;;;;;18.73;58.90;101296.78;5069876;27;45350;-48
2022/10/27 00:07:55;;;;;;;;;7.00;3.00;;;;;18.72;58.82;101295.09;5066316;27;62149;-49
2022/10/27 00:10:20;;;;;;;;;2.75;2.75;;;;;18.73;58.89;101305.63;5074960;27;46304;-51
2022/10/27 00:12:46;;;;;;;;;3.75;2.00;;;;;18.70;58.91;101302.28;5068313;27;54533;-52
2022/10/27 00:15:11;;;;;;;;;4.50;2.25;;;;;18.69;58.76;101308.50;5069677;27;45312;-44
2022/10/27 00:17:37;;;;;;;;;6.50;3.00;;;;;18.67;58.75;101303.28;5077619;27;49782;-51
2022/10/27 00:20:03;;;;;;;;;1.75;1.75;;;;;18.67;58.80;101313.88;5066716;28;57142;-53
2022/10/27 00:22:28;;;;;;;;;3.25;1.75;;;;;18.69;58.75;101319.09;5065531;28;45966;-48
2022/10/27 00:24:54;;;;;;;;;2.50;2.00;;;;;18.69;58.72;101322.59;5074215;27;55890;-48
2022/10/27 00:27:19;;;;;;;;;1.50;1.50;;;;;18.70;58.75;101315.53;5071583;27;56656;-51
2022/10/27 00:29:44;;;;;;;;;2.75;1.75;;;;;18.72;58.49;101321.59;5070421;28;74561;-47
2022/10/27 00:32:10;;;;;;;;;3.75;2.00;;;;;18.71;58.81;101319.88;5068904;27;73214;-47
2022/10/27 00:34:35;;;;;;;;;5.00;1.75;;;;;18.69;58.61;101319.94;5078263;27;45397;-49
2022/10/27 00:37:00;;;;;;;;;2.50;2.25;;;;;18.70;59.10;101318.19;5065074;28;54160;-52
2022/10/27 00:39:26;;;;;;;;;4.50;4.00;;;;;18.72;59.13;101318.94;5065032;27;57709;-49
2022/10/27 00:41:51;;;;;;;;;6.00;2.00;;;;;18.71;58.59;101314.56;5076859;27;45480;-47
2022/10/27 00:44:32;;;;;;;;;3.00;2.00;;;;;18.69;58.71;101314.66;5090856;27;60179;-50
2022/10/27 00:47:02;;;;;;;;;4.00;2.00;;;;;18.68;58.71;101314.72;5077321;27;45790;-49
2022/10/27 00:49:31;;;;;;;;;2.25;1.50;;;;;18.66;58.88;101303.34;5065634;28;45417;-51
2022/10/27 00:52:00;;;;;;;;;3.75;3.75;;;;;18.65;58.55;101306.94;5067936;28;46161;-49
2022/10/27 00:54:28;;;;;;;;;3.25;3.25;;;;;18.63;58.81;101307.03;5069259;28;45488;-49
2022/10/27 00:56:53;;;;;;;;;4.50;3.00;;;;;18.62;58.74;101313.25;5064306;27;45508;-50
2022/10/27 00:59:20;;;;;;;;;4.00;2.00;;;;;18.60;58.59;101310.69;5078130;27;72055;-51
2022/10/27 01:01:45;;;;;;;;;3.75;2.00;;;;;18.60;59.10;101304.53;5083585;27;45623;-53
2022/10/27 01:04:12;;;;;;;;;3.75;1.00;;;;;18.58;58.60;101303.75;5064410;27;71021;-47
2022/10/27 01:06:37;;;;;;;;;2.75;2.75;;;;;18.57;58.79;101297.59;5057405;28;45537;-48
2022/10/27 01:09:04;;;;;;;;;5.50;2.00;;;;;18.56;58.96;101295.03;5063223;28;70600;-47
2022/10/27 01:11:29;;;;;;;;;4.25;3.00;;;;;18.53;58.60;101293.38;5075092;28;45391;-50
2022/10/27 01:13:55;;;;;;;;;2.00;2.00;;;;;18.52;58.51;101289.03;5068901;28;45529;-51
2022/10/27 01:16:43;;;;;;;;;3.00;1.00;;;;;18.49;58.67;101293.63;5074696;27;52699;-51
2022/10/27 01:19:17;;;;;;;;;3.25;3.00;;;;;18.46;59.03;101294.63;5059106;27;45426;-50
2022/10/27 01:21:57;;;;;;;;;5.00;4.00;;;;;18.46;58.76;101288.47;5070817;28;45430;-46
2022/10/27 01:24:57;;;;;;;;;3.00;2.00;;;;;18.44;58.70;101283.25;5071375;27;45477;-48
2022/10/27 01:27:34;;;;;;;;;3.25;3.00;;;;;18.45;58.67;101287.63;5061756;27;45489;-48
2022/10/27 01:30:13;;;;;;;;;5.00;2.00;;;;;18.43;58.70;101284.19;5069479;27;46574;-55
2022/10/27 01:32:49;;;;;;;;;3.50;2.00;;;;;18.38;59.00;101284.44;5065975;27;45811;-50
2022/10/27 01:35:24;;;;;;;;;1.00;1.00;;;;;18.34;58.76;101284.66;5068457;27;45607;-53
2022/10/27 01:38:16;;;;;;;;;4.50;3.00;;;;;18.32;58.95;101271.47;5074315;27;45434;-50
2022/10/27 01:40:44;;;;;;;;;4.50;2.25;;;;;18.30;58.90;101273.34;5057962;28;45427;-50
2022/10/27 01:43:13;;;;;;;;;2.00;1.25;;;;;18.29;58.81;101276.97;5065582;28;45546;-49
2022/10/27 01:45:40;;;;;;;;;1.75;1.75;;;;;18.28;58.91;101284.97;5071824;28;45636;-47
2022/10/27 01:48:07;;;;;;;;;2.00;2.00;;;;;18.25;58.84;101278.03;5066349;27;61037;-49
2022/10/27 01:50:35;;;;;;;;;3.75;2.00;;;;;18.23;58.90;101277.25;5066324;27;45392;-50
2022/10/27 01:53:00;;;;;;;;;5.00;1.75;;;;;18.20;58.92;101269.44;5066432;28;45270;-51
2022/10/27 01:55:26;;;;;;;;;2.00;2.00;;;;;18.17;59.04;101278.41;5069149;28;45348;-52
2022/10/27 01:57:54;;;;;;;;;3.00;2.00;;;;;18.17;58.84;101285.53;5070758;28;45458;-50
2022/10/27 02:00:19;;;;;;;;;2.75;2.00;;;;;18.15;59.11;101272.34;5069718;27;46649;-46
2022/10/27 02:02:54;;;;;;;;;3.00;2.25;;;;;18.16;59.05;101270.53;5064838;28;45297;-48
2022/10/27 02:05:26;;;;;;;;;1.25;1.25;;;;;18.14;59.23;101278.56;5076900;27;45277;-48
2022/10/27 02:08:00;;;;;;;;;1.25;1.25;;;;;18.12;59.22;101275.13;5074382;27;45315;-46
2022/10/27 02:10:26;;;;;;;;;3.00;2.00;;;;;18.12;59.16;101269.84;5059915;28;46337;-49
2022/10/27 02:12:52;;;;;;;;;5.00;2.00;;;;;18.11;59.24;101267.25;5073164;27;45672;-50
2022/10/27 02:15:31;;;;;;;;;4.00;3.00;;;;;18.14;59.12;101257.38;5075169;28;45520;-47
2022/10/27 02:18:29;;;;;;;;;2.00;2.00;;;;;18.14;59.07;101259.19;5062789;28;45643;-50
2022/10/27 02:21:00;;;;;;;;;4.25;2.50;;;;;18.13;59.31;101262.75;5059603;28;45797;-49
2022/10/27 02:23:26;;;;;;;;;3.50;1.25;;;;;18.13;59.23;101246.84;5064434;28;45375;-52
2022/10/27 02:25:57;;;;;;;;;1.00;1.00;;;;;18.14;59.31;101251.22;5066318;28;45477;-50
2022/10/27 02:28:30;;;;;;;;;6.25;2.00;;;;;18.14;59.14;101245.94;5074287;28;45513;-49
2022/10/27 02:30:58;;;;;;;;;1.50;1.25;;;;;18.14;59.37;101243.28;5082492;27;47431;-52
2022/10/27 02:33:24;;;;;;;;;4.25;1.25;;;;;18.12;59.31;101247.81;5057905;27;45896;-50
2022/10/27 02:35:51;;;;;;;;;5.00;2.00;;;;;18.10;58.90;101245.22;5064694;28;45261;-49
2022/10/27 02:38:17;;;;;;;;;3.50;2.25;;;;;18.10;59.10;101241.72;5070395;28;45314;-52
2022/10/27 02:40:43;;;;;;;;;3.50;2.75;;;;;18.08;59.20;101239.16;5088601;27;51502;-48
2022/10/27 02:43:08;;;;;;;;;4.00;2.25;;;;;18.05;58.84;101236.66;5064129;28;47728;-50
2022/10/27 02:45:33;;;;;;;;;7.25;2.75;;;;;18.03;59.32;101241.19;5072056;27;63911;-48
2022/10/27 02:47:59;;;;;;;;;4.00;3.00;;;;;18.03;59.03;101234.06;5069531;28;45325;-50
2022/10/27 02:50:24;;;;;;;;;5.00;2.00;;;;;18.02;59.16;101237.69;5072628;28;64121;-52
2022/10/27 02:52:49;;;;;;;;;5.00;3.50;;;;;18.02;59.09;101242.09;5060879;27;67694;-51
2022/10/27 02:55:15;;;;;;;;;4.00;2.50;;;;;17.99;59.11;101234.31;5078142;28;61232;-46
2022/10/27 02:57:40;;;;;;;;;2.50;1.75;;;;;17.97;59.23;101231.75;5064381;27;66046;-46
2022/10/27 03:00:06;;;;;;;;;2.75;2.75;;;;;17.98;59.02;101243.19;5075341;28;46031;-47
2022/10/27 03:02:31;;;;;;;;;3.75;2.00;;;;;17.97;59.13;101238.81;5069659;27;45656;-50
2022/10/27 03:04:57;;;;;;;;;4.00;2.00;;;;;17.97;59.07;101241.47;5074574;27;64506;-51
2022/10/27 03:07:23;;;;;;;;;4.75;2.75;;;;;17.96;59.09;101235.31;5066868;27;71503;-49
2022/10/27 03:09:48;;;;;;;;;4.00;3.00;;;;;17.95;58.80;101225.66;5065868;27;46268;-50
2022/10/27 03:12:13;;;;;;;;;5.50;3.50;;;;;17.94;58.92;101242.50;5069489;27;58207;-48
2022/10/27 03:14:39;;;;;;;;;4.50;3.25;;;;;17.92;59.17;101244.38;5060997;28;56105;-50
2022/10/27 03:17:04;;;;;;;;;2.00;2.00;;;;;17.93;59.07;101235.47;5065294;27;55302;-50
2022/10/27 03:19:29;;;;;;;;;4.00;2.00;;;;;17.90;58.88;101235.66;5072641;27;46622;-48
2022/10/27 03:21:54;;;;;;;;;6.50;3.25;;;;;17.89;59.01;101222.47;5061956;28;61233;-48
2022/10/27 03:24:20;;;;;;;;;4.00;3.00;;;;;17.88;59.00;101234.84;5087403;27;55298;-50
2022/10/27 03:26:45;;;;;;;;;5.00;3.00;;;;;17.88;58.90;101228.69;5066946;28;62364;-49
2022/10/27 03:29:10;;;;;;;;;2.00;2.00;;;;;17.89;58.87;101230.41;5065028;27;66910;-49
2022/10/27 03:31:36;;;;;;;;;1.00;1.00;;;;;17.89;59.21;101236.56;5073169;27;45456;-49
2022/10/27 03:34:01;;;;;;;;;2.00;1.00;;;;;17.90;58.90;101240.06;5068613;28;45426;-51
2022/10/27 03:36:26;;;;;;;;;2.50;1.00;;;;;17.92;58.97;101238.19;5060147;28;67800;-51
2022/10/27 03:38:53;;;;;;;;;4.50;4.00;;;;;17.92;59.08;101248.78;5047763;28;47233;-48
2022/10/27 03:41:18;;;;;;;;;3.00;2.00;;;;;17.93;58.93;101239.91;5076210;27;45520;-49
2022/10/27 03:43:44;;;;;;;;;2.25;2.00;;;;;17.91;58.96;101237.34;5077951;27;45368;-49
2022/10/27 03:46:09;;;;;;;;;3.75;3.25;;;;;17.90;58.96;101240.94;5074815;28;56972;-48
2022/10/27 03:48:35;;;;;;;;;2.00;1.50;;;;;17.91;58.94;101237.34;5077729;27;65771;-52
2022/10/27 03:51:00;;;;;;;;;6.00;2.00;;;;;17.90;58.86;101233.00;5085595;27;45582;-51
2022/10/27 03:53:25;;;;;;;;;2.00;2.00;;;;;17.89;58.72;101241.84;5069631;27;63542;-50
2022/10/27 03:55:51;;;;;;;;;3.50;3.50;;;;;17.89;58.70;101233.06;5079509;27;65663;-51
2022/10/27 03:58:17;;;;;;;;;3.50;1.50;;;;;17.88;58.98;101234.84;5076102;27;45343;-51
2022/10/27 04:00:43;;;;;;;;;3.25;3.00;;;;;17.85;59.08;101229.69;5075798;27;45498;-52
2022/10/27 04:03:08;;;;;;;;;3.00;1.25;;;;;17.86;59.00;101236.72;5070826;28;45316;-48
2022/10/27 04:05:33;;;;;;;;;4.00;2.75;;;;;17.83;59.02;101224.47;5072001;27;53938;-49
2022/10/27 04:07:59;;;;;;;;;3.00;2.75;;;;;17.86;58.74;101241.16;5070121;28;46375;-48
2022/10/27 04:10:25;;;;;;;;;4.00;3.00;;;;;17.82;58.85;101227.19;5071141;27;45752;-47
2022/10/27 04:12:52;;;;;;;;;6.00;3.00;;;;;17.79;58.86;101233.47;5074522;28;45615;-47
2022/10/27 04:15:18;;;;;;;;;3.75;3.75;;;;;17.81;58.92;101241.34;5076557;27;45555;-47
2022/10/27 04:17:44;;;;;;;;;3.50;3.00;;;;;17.79;58.90;101243.22;5076941;27;46291;-46
2022/10/27 04:20:10;;;;;;;;;3.25;3.00;;;;;17.78;58.77;101237.06;5073210;27;55631;-48
2022/10/27 04:22:35;;;;;;;;;4.50;1.50;;;;;17.76;59.13;101235.41;5077458;27;45474;-50
2022/10/27 04:25:00;;;;;;;;;3.25;2.25;;;;;17.74;58.95;101240.81;5074713;27;60947;-52
2022/10/27 04:27:26;;;;;;;;;3.50;1.75;;;;;17.73;58.99;101235.56;5071438;28;62409;-52
2022/10/27 04:29:51;;;;;;;;;6.00;3.00;;;;;17.72;58.78;101240.00;5067362;28;45339;-51
2022/10/27 04:32:16;;;;;;;;;2.25;2.25;;;;;17.72;58.87;101232.06;5072836;27;67194;-51
2022/10/27 04:34:42;;;;;;;;;4.50;4.00;;;;;17.71;58.75;101235.66;5076298;28;45493;-45
2022/10/27 04:37:07;;;;;;;;;3.75;3.00;;;;;17.70;59.02;101239.22;5077809;27;66001;-52
2022/10/27 04:39:33;;;;;;;;;3.00;3.00;;;;;17.70;58.93;101233.06;5075914;27;61018;-48
2022/10/27 04:41:58;;;;;;;;;5.25;3.00;;;;;17.68;59.01;101214.63;5070354;28;61768;-49
2022/10/27 04:44:23;;;;;;;;;10.00;8.00;;;;;17.71;59.08;101218.91;5070802;28;49384;-48
2022/10/27 04:46:49;;;;;;;;;7.00;7.00;;;;;17.68;59.03;101214.63;5072338;27;71258;-47
2022/10/27 04:49:14;;;;;;;;;8.00;6.00;;;;;17.67;58.91;101218.22;5070320;27;58756;-50
2022/10/27 04:51:39;;;;;;;;;6.50;6.50;;;;;17.63;58.98;101213.97;5072276;27;45297;-52
2022/10/27 04:54:05;;;;;;;;;7.25;5.50;;;;;17.62;58.99;101212.28;5073021;27;66822;-47
2022/10/27 04:56:30;;;;;;;;;6.50;5.00;;;;;17.60;58.92;101203.53;5068248;27;46419;-49
2022/10/27 04:58:55;;;;;;;;;5.00;5.00;;;;;17.62;59.14;101217.56;5075710;27;69895;-51
2022/10/27 05:01:22;;;;;;;;;5.00;4.75;;;;;17.62;58.93;101215.78;5064273;27;45499;-49
2022/10/27 05:03:48;;;;;;;;;12.25;6.00;;;;;17.63;58.75;101220.13;5066124;27;45442;-47
2022/10/27 05:06:13;;;;;;;;;8.00;6.00;;;;;17.61;59.04;101216.69;5079196;27;47006;-48
2022/10/27 05:08:39;;;;;;;;;7.25;7.00;;;;;17.60;58.91;101220.28;5075189;27;67606;-48
2022/10/27 05:11:04;;;;;;;;;6.50;6.50;;;;;17.57;58.97;101215.16;5069135;28;53954;-51
2022/10/27 05:13:29;;;;;;;;;8.00;5.50;;;;;17.54;59.14;101210.00;5073336;27;67143;-47
2022/10/27 05:15:59;;;;;;;;;7.75;5.25;;;;;17.54;59.14;101219.72;5077414;27;67264;-49
2022/10/27 05:18:24;;;;;;;;;6.50;6.50;;;;;17.55;59.04;101216.16;5075163;27;45631;-47
2022/10/27 05:20:50;;;;;;;;;8.75;6.00;;;;;17.54;59.09;101209.16;5071201;28;61500;-46
2022/10/27 05:23:15;;;;;;;;;7.25;5.00;;;;;17.54;58.99;101202.06;5074535;27;70765;-50
2022/10/27 05:25:40;;;;;;;;;6.25;4.75;;;;;17.53;59.31;101204.78;5074710;27;61374;-46
2022/10/27 05:28:07;;;;;;;;;7.50;4.00;;;;;17.51;59.18;101201.34;5063141;28;67770;-48
2022/10/27 05:30:33;;;;;;;;;8.00;6.00;;;;;17.49;59.31;101205.84;5076414;27;45500;-46
2022/10/27 05:32:58;;;;;;;;;3.00;3.00;;;;;17.50;58.94;101192.56;5069892;27;47262;-50
2022/10/27 05:35:23;;;;;;;;;4.50;3.75;;;;;17.50;59.15;101197.84;5069512;27;66230;-46
2022/10/27 05:37:49;;;;;;;;;6.00;4.00;;;;;17.53;59.13;101205.66;5064851;28;45327;-51
2022/10/27 05:40:15;;;;;;;;;4.00;3.00;;;;;17.53;59.11;101202.13;5070137;28;60286;-45
2022/10/27 05:42:48;;;;;;;;;3.50;3.50;;;;;17.53;58.99;101205.66;5065063;28;45627;-46
2022/10/27 05:45:13;;;;;;;;;4.75;4.75;;;;;17.51;59.01;101194.28;5066081;28;46796;-45
2022/10/27 05:47:38;;;;;;;;;6.25;3.00;;;;;17.51;59.42;101198.69;5070564;28;45390;-45
2022/10/27 05:50:04;;;;;;;;;4.75;4.25;;;;;17.51;59.13;101193.41;5070812;27;45417;-49
2022/10/27 05:52:30;;;;;;;;;3.50;3.50;;;;;17.52;59.16;101195.13;5053121;28;45723;-49
2022/10/27 05:54:55;;;;;;;;;4.00;3.00;;;;;17.54;59.40;101201.22;5076552;27;66482;-48
2022/10/27 05:57:20;;;;;;;;;5.25;3.25;;;;;17.55;59.22;101193.19;5073882;28;55469;-44
2022/10/27 05:59:46;;;;;;;;;5.00;4.00;;;;;17.58;59.09;101192.19;5071454;27;47384;-45
2022/10/27 06:02:11;;;;;;;;;4.75;3.75;;;;;17.58;59.01;101187.75;5068522;27;45531;-48
2022/10/27 06:04:36;;;;;;;;;5.75;4.00;;;;;17.59;59.13;101188.59;5070020;27;57880;-46
2022/10/27 06:07:02;;;;;;;;;3.25;3.25;;;;;17.59;59.28;101185.97;5067462;27;45438;-50
2022/10/27 06:09:27;;;;;;;;;3.50;3.50;;;;;17.56;58.99;101184.31;5065004;28;61567;-50
2022/10/27 06:11:52;;;;;;;;;5.00;4.00;;;;;17.52;59.14;101177.47;5075784;28;45342;-48
2022/10/27 06:14:18;;;;;;;;;4.00;3.00;;;;;17.51;59.13;101178.41;5078278;27;73349;-49
2022/10/27 06:16:43;;;;;;;;;5.00;3.75;;;;;17.49;59.46;101176.75;5068116;27;61244;-48
2022/10/27 06:19:08;;;;;;;;;2.50;2.50;;;;;17.47;59.43;101176.81;5063060;27;45491;-47
2022/10/27 06:21:34;;;;;;;;;3.00;2.75;;;;;17.48;59.27;101177.69;5066015;27;61240;-45
2022/10/27 06:23:59;;;;;;;;;5.75;5.00;;;;;17.49;59.40;101185.53;5076204;28;67930;-46
2022/10/27 06:26:24;;;;;;;;;3.00;3.00;;;;;17.52;59.13;101185.41;5074244;27;66963;-45
2022/10/27 06:28:50;;;;;;;;;5.00;4.00;;;;;17.56;59.37;101178.16;5070056;28;45502;-47
2022/10/27 06:31:15;;;;;;;;;7.00;3.75;;;;;17.59;59.03;101164.78;5065577;27;60867;-49
2022/10/27 06:33:40;;;;;;;;;3.75;3.00;;;;;17.56;59.11;101152.56;5084835;27;55253;-51
2022/10/27 06:36:06;;;;;;;;;1.75;0.00;;;;;17.60;59.23;101154.13;5070807;27;71848;-48
2022/10/27 06:38:31;;;;;;;;;5.75;3.00;;;;;17.57;59.11;101154.28;5068258;27;45810;-51
2022/10/27 06:40:56;;;;;;;;;3.00;2.00;;;;;17.53;59.03;101154.50;5065351;27;45388;-47
2022/10/27 06:43:22;;;;;;;;;5.00;3.75;;;;;17.51;58.82;101156.34;5074430;27;71930;-51
2022/10/27 06:45:48;;;;;;;;;4.75;4.00;;;;;17.52;58.96;101163.38;5066055;27;68454;-50
2022/10/27 06:48:13;;;;;;;;;4.25;4.00;;;;;17.51;59.25;101154.59;5067355;28;45359;-52
2022/10/27 06:50:39;;;;;;;;;7.50;3.25;;;;;17.53;59.14;101158.00;5071650;27;45478;-47
2022/10/27 06:53:04;;;;;;;;;3.75;2.50;;;;;17.55;59.20;101153.50;5073664;27;45530;-52
2022/10/27 06:55:30;;;;;;;;;3.75;2.50;;;;;17.55;58.80;101157.94;5064263;27;61867;-51
2022/10/27 06:57:56;;;;;;;;;5.00;4.50;;;;;17.55;59.11;101152.66;5064036;28;45604;-49
2022/10/27 07:00:21;;;;;;;;;4.00;4.00;;;;;17.56;59.10;101154.34;5065384;28;45605;-52
2022/10/27 07:02:46;;;;;;;;;5.25;4.75;;;;;17.57;59.03;101150.78;5080173;27;46631;-49
2022/10/27 07:05:12;;;;;;;;;4.00;4.00;;;;;17.57;58.96;101153.44;5069125;27;72157;-48
2022/10/27 07:07:37;;;;;;;;;3.25;3.25;;;;;17.55;59.29;101160.59;5067318;27;45962;-49
2022/10/27 07:10:05;;;;;;;;;8.00;4.00;;;;;17.58;59.28;101171.00;5067733;28;45454;-47
2022/10/27 07:12:31;;;;;;;;;5.00;4.00;;;;;17.59;59.20;101173.56;5060223;27;46051;-50
2022/10/27 07:14:56;;;;;;;;;5.50;4.00;;;;;17.63;59.17;101184.88;5072579;27;71984;-47
2022/10/27 07:17:22;;;;;;;;;3.00;3.00;;;;;17.67;59.13;101188.22;5080351;27;45836;-48
2022/10/27 07:19:47;;;;;;;;;6.50;4.25;;;;;17.69;58.96;101199.59;5073263;28;45411;-49
2022/10/27 07:22:12;;;;;;;;;7.00;5.00;;;;;17.71;59.00;101203.88;5077511;27;53224;-46
2022/10/27 07:24:38;;;;;;;;;6.00;3.50;;;;;17.74;59.05;101193.16;5064334;28;45324;-48
2022/10/27 07:27:03;;;;;;;;;4.25;3.00;;;;;17.77;59.00;101192.97;5074604;27;45489;-49
2022/10/27 07:29:29;;;;;;;;;7.50;5.00;;;;;17.80;59.04;101208.72;5049868;27;45498;-49
2022/10/27 07:31:54;;;;;;;;;4.75;3.75;;;;;17.83;59.13;101207.72;5075958;27;47104;-47
2022/10/27 07:34:20;;;;;;;;;5.75;4.00;;;;;17.87;58.94;101232.28;5063549;27;45548;-48
2022/10/27 07:36:45;;;;;;;;;4.75;4.00;;;;;17.92;58.93;101240.84;5067736;27;65299;-51
2022/10/27 07:39:10;;;;;;;;;4.50;3.75;;;;;17.95;58.91;101244.19;5064258;27;56108;-46
2022/10/27 07:41:36;;;;;;;;;7.25;6.00;;;;;18.00;58.78;101233.38;5068343;27;48823;-52
2022/10/27 07:44:01;;;;;;;;;7.50;6.00;;;;;18.02;58.64;101227.09;5073416;27;64843;-51
2022/10/27 07:46:28;;;;;;;;;10.25;6.25;;;;;18.05;58.66;101230.50;5074505;27;45261;-49
2022/10/27 07:48:53;;;;;;;;;8.75;7.50;;;;;18.08;58.87;101239.16;5077282;27;45571;-47
2022/10/27 07:51:19;;;;;;;;;9.25;7.00;;;;;18.10;58.49;101229.34;5081478;27;47618;-50
2022/10/27 07:53:44;;;;;;;;;8.00;7.00;;;;;18.13;58.57;101226.53;5081575;27;45313;-46
2022/10/27 07:56:10;;;;;;;;;9.50;6.75;;;;;18.14;58.55;101244.13;5082703;27;45289;-51
2022/10/27 07:58:35;;;;;;;;;12.25;7.00;;;;;18.16;58.73;101236.97;5081233;28;66697;-48
2022/10/27 08:01:02;;;;;;;;;7.75;5.25;;;;;18.17;58.57;101216.66;5082025;27;55549;-47
2022/10/27 08:03:30;;;;;;;;;12.25;7.00;;;;;18.18;58.46;101210.38;5081740;27;45735;-47
2022/10/27 08:05:59;;;;;;;;;6.00;5.25;;;;;18.18;58.43;101208.63;5082534;27;45395;-49
2022/10/27 08:08:24;;;;;;;;;11.50;7.00;;;;;18.17;58.41;101222.78;5081337;28;45561;-47
2022/10/27 08:10:50;;;;;;;;;9.75;4.75;;;;;18.19;58.34;101234.16;5081049;27;45479;-50
2022/10/27 08:13:16;;;;;;;;;7.50;6.25;;;;;18.23;58.44;101228.72;5080882;28;45350;-46
2022/10/27 08:15:41;;;;;;;;;8.75;4.50;;;;;18.26;58.03;101231.22;5082247;27;47043;-47
2022/10/27 08:18:08;;;;;;;;;8.00;4.75;;;;;18.27;58.34;101239.06;5077932;27;49573;-46
2022/10/27 08:20:40;;;;;;;;;9.50;5.25;;;;;18.29;58.16;101234.56;5074303;27;46058;-46
2022/10/27 08:23:10;;;;;;;;;6.75;6.00;;;;;18.30;57.86;101235.41;5118427;27;45280;-49
2022/10/27 08:25:35;;;;;;;;;6.00;3.25;;;;;18.31;58.06;101231.81;5079884;27;45326;-46
2022/10/27 08:28:01;;;;;;;;;7.00;5.50;;;;;18.33;58.27;101240.56;5090359;27;65136;-46
2022/10/27 08:30:28;;;;;;;;;6.75;5.00;;;;;18.34;58.10;101242.25;5091591;27;45382;-46
2022/10/27 08:32:58;;;;;;;;;6.00;5.25;;;;;18.35;57.95;101242.19;5080662;27;45244;-47
2022/10/27 08:35:24;;;;;;;;;7.00;4.50;;;;;18.36;57.92;101243.91;5087061;27;45345;-46
2022/10/27 08:37:57;;;;;;;;;10.00;6.00;;;;;18.38;57.89;101230.59;5087897;27;45351;-46
2022/10/27 08:40:23;;;;;;;;;12.75;6.00;;;;;18.39;57.75;101237.56;5078677;27;46069;-47
2022/10/27 08:43:07;;;;;;;;;9.00;5.25;;;;;18.40;57.84;101244.59;5088626;27;69733;-46
2022/10/27 08:45:42;;;;;;;;;7.25;5.00;;;;;18.39;57.92;101246.38;5089123;27;45284;-48
2022/10/27 08:48:10;;;;;;;;;7.00;6.75;;;;;18.38;58.08;101246.47;5079609;27;45522;-47
2022/10/27 08:50:40;;;;;;;;;10.75;5.75;;;;;18.40;58.11;101245.44;5078657;27;57713;-46
2022/10/27 08:53:08;;;;;;;;;6.25;6.25;;;;;18.42;57.88;101253.31;5082471;27;45842;-47
2022/10/27 08:55:51;;;;;;;;;10.00;6.00;;;;;18.45;58.25;101257.59;5073702;28;45350;-47
2022/10/27 08:58:35;;;;;;;;;9.50;6.50;;;;;18.46;57.97;101261.97;5083223;27;45489;-46
2022/10/27 09:01:19;;;;;;;;;8.75;6.00;;;;;18.47;57.95;101259.25;5064844;27;45355;-46
2022/10/27 09:04:20;;;;;;;;;11.25;9.25;;;;;18.46;58.09;101248.72;5088468;27;45472;-47
2022/10/27 09:07:07;;;;;;;;;8.50;8.50;;;;;18.47;58.01;101256.59;5081448;27;45460;-46
2022/10/27 09:09:39;;;;;;;;;11.00;8.00;;;;;18.49;58.24;101265.31;5081742;27;45634;-47
2022/10/27 09:12:26;;;;;;;;;13.00;8.25;;;;;18.56;57.98;101269.38;5085877;27;47297;-51
2022/10/27 09:15:16;;;;;;;;;8.50;8.50;;;;;18.63;58.07;101271.69;5098162;27;45315;-54
2022/10/27 09:18:05;;;;;;;;;10.50;9.75;;;;;18.69;57.93;101263.44;5082352;27;45281;-52
2022/10/27 09:21:00;;;;;;;;;11.00;9.00;;;;;18.74;58.31;101262.25;5074595;27;45328;-47
2022/10/27 09:23:43;;;;;;;;;10.25;8.00;;;;;18.79;57.52;101259.34;5072364;27;45271;-48
2022/10/27 09:26:09;;;;;;;;;9.00;8.25;;;;;18.85;57.52;101269.66;5083119;27;45872;-52
2022/10/27 09:28:45;;;;;;;;;10.50;10.50;;;;;18.88;57.79;101273.97;5076145;27;45481;-49
2022/10/27 09:31:14;;;;;;;;;9.25;8.00;;;;;18.91;57.82;101260.50;5062472;27;45371;-51
2022/10/27 09:33:54;;;;;;;;;10.25;9.50;;;;;18.95;57.70;101270.88;5079619;28;47173;-47
2022/10/27 09:36:20;;;;;;;;;9.50;8.00;;;;;19.00;57.67;101275.97;5079608;27;45316;-47
2022/10/27 09:38:45;;;;;;;;;8.50;8.50;;;;;19.03;57.50;101281.06;5062341;28;45434;-48
2022/10/27 09:41:11;;;;;;;;;9.75;9.00;;;;;19.09;57.64;101285.22;5070977;27;71580;-51
2022/10/27 09:43:37;;;;;;;;;13.25;9.00;;;;;19.14;57.16;101283.13;5080138;27;45425;-51
2022/10/27 09:46:10;;;;;;;;;9.25;8.50;;;;;19.18;57.35;101283.84;5077582;27;50755;-48
2022/10/27 09:48:36;;;;;;;;;7.50;7.50;;;;;19.20;56.74;101277.50;5088104;27;45372;-52
2022/10/27 09:51:16;;;;;;;;;9.50;9.50;;;;;19.25;57.28;101286.09;5082513;27;66964;-49
2022/10/27 09:53:52;;;;;;;;;10.50;9.50;;;;;19.30;57.07;101277.84;5080456;27;45445;-53
2022/10/27 09:56:24;;;;;;;;;12.00;8.75;;;;;19.34;57.31;101274.13;5087801;27;45469;-51
2022/10/27 09:59:01;;;;;;;;;11.25;8.75;;;;;19.37;57.02;101266.00;5084026;27;45298;-48
2022/10/27 10:01:55;;;;;;;;;11.25;9.50;;;;;19.43;57.16;101260.31;5081738;27;45248;-52
2022/10/27 10:04:34;;;;;;;;;9.25;8.75;;;;;19.48;56.82;101258.28;5084429;27;46260;-54
2022/10/27 10:07:02;;;;;;;;;13.00;8.50;;;;;19.52;56.91;101254.50;5082335;27;45864;-51
2022/10/27 10:09:30;;;;;;;;;13.00;10.50;;;;;19.58;56.93;101255.09;5081659;27;45282;-53
2022/10/27 10:12:18;;;;;;;;;12.00;9.75;;;;;19.64;56.73;101257.41;5094657;27;45559;-48
2022/10/27 10:14:43;;;;;;;;;10.50;9.50;;;;;19.69;56.73;101271.28;5081181;27;46899;-50
2022/10/27 10:17:29;;;;;;;;;18.25;13.75;;;;;19.73;56.53;101279.00;5075918;27;68702;-51
2022/10/27 10:19:55;;;;;;;;;14.25;11.25;;;;;19.80;56.80;101276.88;5075077;27;45482;-49
2022/10/27 10:22:26;;;;;;;;;14.75;10.25;;;;;19.87;56.45;101264.09;5077489;27;45500;-55
2022/10/27 10:24:53;;;;;;;;;16.75;11.50;;;;;19.94;56.65;101275.19;5068301;27;45993;-47
2022/10/27 10:27:38;;;;;;;;;11.00;11.00;;;;;19.99;56.21;101267.81;5074279;28;45545;-48
2022/10/27 10:30:04;;;;;;;;;13.75;11.25;;;;;20.02;56.24;101270.31;5064878;27;60060;-51
2022/10/27 10:32:34;;;;;;;;;14.50;10.75;;;;;20.07;56.29;101270.91;5077380;27;45358;-49
2022/10/27 10:35:00;;;;;;;;;17.00;10.00;;;;;20.13;55.77;101280.31;5074393;27;46001;-53
2022/10/27 10:37:38;;;;;;;;;13.75;11.00;;;;;20.19;56.00;101266.69;5072533;28;45509;-50
2022/10/27 10:40:12;;;;;;;;;19.25;13.50;;;;;20.22;56.11;101275.31;5070007;28;46623;-49
2022/10/27 10:42:40;;;;;;;;;14.75;11.00;;;;;20.27;55.70;101270.59;5067751;28;45746;-53
2022/10/27 10:45:19;;;;;;;;;13.25;9.75;;;;;20.32;55.61;101277.44;5077147;27;45362;-53
2022/10/27 10:47:47;;;;;;;;;11.75;10.75;;;;;20.37;55.93;101280.69;5095328;27;45752;-51
2022/10/27 10:50:13;;;;;;;;;13.00;10.25;;;;;20.42;55.91;101273.28;5078656;28;45520;-49
2022/10/27 10:52:49;;;;;;;;;11.00;9.75;;;;;20.45;55.73;101278.41;5079995;27;46925;-49
2022/10/27 10:55:32;;;;;;;;;10.75;8.50;;;;;20.49;55.00;101269.31;5077912;27;48128;-50
2022/10/27 10:57:58;;;;;;;;;13.75;10.50;;;;;20.53;54.88;101265.50;5078520;27;45514;-50
2022/10/27 11:00:24;;;;;;;;;14.75;10.50;;;;;20.55;55.12;101260.09;5077156;27;45329;-51
2022/10/27 11:02:52;;;;;;;;;15.00;9.25;;;;;20.59;55.13;101266.94;5101292;27;45724;-49
2022/10/27 11:05:21;;;;;;;;;12.75;11.00;;;;;20.65;55.35;101274.59;5078104;27;46034;-53
2022/10/27 11:07:47;;;;;;;;;12.00;11.00;;;;;20.69;55.29;101273.44;5083246;27;45271;-50
2022/10/27 11:10:15;;;;;;;;;15.75;10.75;;;;;20.75;54.75;101273.09;5082446;27;45588;-50
2022/10/27 11:12:41;;;;;;;;;15.75;12.00;;;;;20.78;54.63;101272.03;5082061;27;45519;-49
2022/10/27 11:15:31;;;;;;;;;10.50;10.00;;;;;20.83;55.05;101276.09;5085533;27;46189;-50
2022/10/27 11:18:01;;;;;;;;;35.50;29.50;;;;;20.89;54.85;101266.03;5068693;27;45796;-49
2022/10/27 11:20:30;;;;;;;;;19.00;13.25;;;;;20.95;54.76;101255.88;5089116;27;45364;-50
2022/10/27 11:22:57;;;;;;;;;18.50;16.00;;;;;21.00;54.58;101248.47;5082023;27;45255;-51
2022/10/27 11:25:25;;;;;;;;;18.75;15.00;;;;;21.04;54.40;101247.31;5069241;27;46603;-48
2022/10/27 11:28:03;;;;;;;;;18.50;13.00;;;;;21.11;54.19;101246.94;5079945;27;45746;-51